• Join FlightAware (Why Join?)
  • Login
  • US Flag 
05:13AM EDT


 

Airport Tracker/Info


-or-


 

Live Flight TrackerFlight Track Log ✈ UAL149 ✈ 28-Apr-2013 ✈ TJSJ / SJU - KIAH

Flight Track Log - Related Links

Times and Time Zones

All times are in EDT time to prevent confusion due to time zone crossing. See the UAL149 flight status page for this flight to view local times or setup timezone preferences in your user account.

Time Position Orientation Groundspeed Altitude Reporting Facility
EDT Latitude Longitude Course Direction KTS MPH feet Rate Location/Type
04:32PM 18.4500 -65.9667 317° Northwest 170 196 1,300  Level San Juan Center
04:33PM 18.5167 -66.0000 335° Northwest 230 265 3,600 2,520 Climbing San Juan Center
04:34PM 18.6748 -66.2248 317° Northwest  Level FlightAware Approximate
04:34PM 18.5833 -66.0167 347° North 270 311 6,400  Level San Juan Center
04:35PM 18.7534 -66.3034 317° Northwest  Level FlightAware Approximate
04:35PM 18.6500 -66.0500 335° Northwest 290 334 9,600  Level San Juan Center
04:36PM 18.8321 -66.3820 317° Northwest  Level FlightAware Approximate
04:36PM 18.7333 -66.1000 330° Northwest 330 380 10,000  Level San Juan Center
04:37PM 18.9107 -66.4607 317° Northwest  Level FlightAware Approximate
04:37PM 18.7833 -66.1833 302° West 360 414 11,500  Level San Juan Center
04:38PM 18.8500 -66.2667 310° West 370 426 13,700 2,280 Climbing San Juan Center
04:39PM 18.9167 -66.3500 310° West 400 460 16,200 2,460 Climbing San Juan Center
04:40PM 18.9833 -66.4500 305° West 400 460 18,700 2,340 Climbing San Juan Center
04:41PM 19.0667 -66.5500 311° West 410 472 20,900 1,980 Climbing San Juan Center
04:42PM 19.1333 -66.6500 305° West 430 495 22,800 1,920 Climbing San Juan Center
04:43PM 19.2000 -66.7333 310° West 420 483 24,800 1,800 Climbing San Juan Center
04:44PM 19.2667 -66.8333 305° West 420 483 26,500 1,620 Climbing San Juan Center
04:45PM 19.3500 -66.9333 311° West 440 506 28,100 1,620 Climbing San Juan Center
04:46PM 19.4167 -67.0333 305° West 430 495 29,800 1,500 Climbing San Juan Center
04:47PM 19.5000 -67.1333 311° West 430 495 31,200 1,620 Climbing San Juan Center
04:48PM 19.5667 -67.2333 305° West 430 495 33,100 1,920 Climbing San Juan Center
04:49PM 19.6500 -67.3333 312° West 400 460 35,100 1,440 Climbing San Juan Center
04:50PM 19.7167 -67.4167 310° West 390 449 36,000 420 Climbing San Juan Center
04:51PM 19.7833 -67.5167 305° West 410 472 36,000  Level San Juan Center
04:52PM 19.8500 -67.6167 305° West 410 472 36,000  Level San Juan Center
04:54PM 19.9936 -67.8183 307° West 459 528 36,000  Level Miami Center
04:55PM 20.0594 -67.9153 306° West 422 486 36,000  Level Miami Center
04:56PM 20.1333 -68.0072 311° West 416 479 36,000  Level Miami Center
04:57PM 20.2014 -68.1067 306° West 416 479 36,000  Level Miami Center
04:58PM 20.2589 -68.2086 301° West 411 473 36,000  Level Miami Center
04:59PM 20.3147 -68.3111 300° West 401 461 36,000  Level Miami Center
05:00PM 20.3661 -68.4161 298° West 401 461 36,000  Level Miami Center
05:01PM 20.4256 -68.5161 302° West 401 461 36,000  Level Miami Center
05:02PM 20.4792 -68.6211 299° West 401 461 36,000  Level Miami Center
05:03PM 20.5303 -68.7242 298° West 401 461 36,000  Level Miami Center
05:04PM 20.5856 -68.8269 300° West 401 461 36,000  Level Miami Center
05:05PM 20.6389 -68.9322 298° West 401 461 36,000  Level Miami Center
05:06PM 20.6942 -69.0331 300° West 401 461 36,000  Level Miami Center
05:07PM 20.7514 -69.1381 300° West 401 461 36,000  Level Miami Center
05:08PM 20.8025 -69.2461 297° West 406 467 36,000  Level Miami Center
05:09PM 20.8575 -69.3494 300° West 406 467 36,000  Level Miami Center
05:10PM 20.9169 -69.4547 301° West 406 467 36,000  Level Miami Center
05:11PM 20.9761 -69.5600 301° West 406 467 36,000  Level Miami Center
05:12PM 21.0269 -69.6683 297° West 406 467 36,000  Level Miami Center
05:13PM 21.0819 -69.7764 299° West 406 467 36,000  Level Miami Center
05:14PM 21.1389 -69.8844 299° West 406 467 36,000  Level Miami Center
05:15PM 21.1939 -69.9928 299° West 411 473 36,000  Level Miami Center
05:16PM 21.2508 -70.1011 299° West 416 479 36,000  Level Miami Center
05:17PM 21.3056 -70.2072 299° West 416 479 36,000  Level Miami Center
05:18PM 21.3622 -70.3158 299° West 416 479 36,000  Level Miami Center
05:19PM 21.4189 -70.4244 299° West 416 479 36,000  Level Miami Center
05:20PM 21.4733 -70.5308 299° West 416 479 36,000  Level Miami Center
05:21PM 21.5300 -70.6397 299° West 416 479 36,000  Level Miami Center
05:22PM 21.5844 -70.7486 298° West 422 486 36,000  Level Miami Center
05:23PM 21.6411 -70.8619 298° West 422 486 36,000  Level Miami Center
05:24PM 21.6953 -70.9711 298° West 422 486 36,000  Level Miami Center
05:25PM 21.7517 -71.0825 299° West 422 486 36,000  Level Miami Center
05:26PM 21.8081 -71.1917 299° West 422 486 36,000  Level Miami Center
05:27PM 21.8622 -71.3033 298° West 422 486 36,000  Level Miami Center
05:28PM 21.9161 -71.4128 298° West 422 486 36,000  Level Miami Center
05:29PM 21.9722 -71.5247 298° West 422 486 36,000  Level Miami Center
05:30PM 22.0283 -71.6367 298° West 422 486 36,000  Level Miami Center
05:31PM 22.0822 -71.7464 298° West 422 486 36,000  Level Miami Center
05:32PM 22.1381 -71.8583 298° West 422 486 36,000  Level Miami Center
05:33PM 22.1919 -71.9706 297° West 422 486 36,000  Level Miami Center
05:34PM 22.2475 -72.0806 299° West 422 486 36,000  Level Miami Center
05:35PM 22.3033 -72.1953 298° West 422 486 36,000  Level Miami Center
05:36PM 22.3586 -72.3033 299° West 422 486 36,000  Level Miami Center
05:37PM 22.4103 -72.4183 296° West 422 486 36,000  Level Miami Center
05:38PM 22.4656 -72.5286 298° West 422 486 36,000  Level Miami Center
05:39PM 22.5208 -72.6414 298° West 422 486 36,000  Level Miami Center
05:40PM 22.5742 -72.7544 297° West 422 486 36,000  Level Miami Center
05:41PM 22.6294 -72.8672 298° West 422 486 36,000  Level Miami Center
05:42PM 22.6844 -72.9781 298° West 422 486 36,000  Level Miami Center
05:43PM 22.7375 -73.0936 296° West 422 486 36,000  Level Miami Center
05:44PM 22.7903 -73.2025 298° West 422 486 36,000  Level Miami Center
05:45PM 22.8431 -73.3181 296° West 422 486 36,000  Level Miami Center
05:46PM 22.8981 -73.4317 298° West 422 486 36,000  Level Miami Center
05:47PM 22.9508 -73.5475 296° West 422 486 36,000  Level Miami Center
05:48PM 23.0117 -73.6608 300° West 422 486 36,000  Level Miami Center
05:49PM 23.0622 -73.7747 296° West 422 486 36,000  Level Miami Center
05:50PM 23.1208 -73.8886 299° West 422 486 36,000  Level Miami Center
05:51PM 23.1731 -74.0047 296° West 422 486 36,000  Level Miami Center
05:52PM 23.2297 -74.1211 298° West 422 486 36,000  Level Miami Center
05:53PM 23.2797 -74.2353 296° West 422 486 36,000  Level Miami Center
05:54PM 23.3361 -74.3497 298° West 422 486 36,000  Level Miami Center
05:55PM 23.3922 -74.4661 298° West 422 486 36,000  Level Miami Center
05:56PM 23.4442 -74.5831 296° West 422 486 36,000  Level Miami Center
05:57PM 23.5003 -74.6975 298° West 422 486 36,000  Level Miami Center
05:58PM 23.5519 -74.8144 296° West 422 486 36,000  Level Miami Center
05:59PM 23.6078 -74.9292 298° West 422 486 36,000  Level Miami Center
06:00PM 23.6617 -75.0464 297° West 422 486 36,000  Level Miami Center
06:01PM 23.7172 -75.1636 297° West 422 486 36,000  Level Miami Center
06:02PM 23.7708 -75.2808 297° West 422 486 36,000  Level Miami Center
06:03PM 23.8264 -75.3983 297° West 422 486 36,000  Level Miami Center
06:04PM 23.8797 -75.5158 296° West 422 486 36,000  Level Miami Center
06:05PM 23.9350 -75.6358 297° West 427 491 36,000  Level Miami Center
06:06PM 23.9903 -75.7558 297° West 433 498 36,000  Level Miami Center
06:07PM 24.0433 -75.8736 296° West 433 498 36,000  Level Miami Center
06:08PM 24.0964 -75.9939 296° West 433 498 36,000  Level Miami Center
06:09PM 24.1514 -76.1094 298° West 433 498 36,000  Level Miami Center
06:10PM 24.2042 -76.2300 296° West 433 498 36,000  Level Miami Center
06:11PM 24.2589 -76.3483 297° West 433 498 36,000  Level Miami Center
06:12PM 24.3117 -76.4689 296° West 433 498 36,000  Level Miami Center
06:14PM 24.4208 -76.7128 296° West 433 498 36,000  Level Miami Center
06:15PM 24.4731 -76.8361 295° West 433 498 36,000  Level Miami Center
06:16PM 24.5275 -76.9547 297° West 433 498 36,000  Level Miami Center
06:17PM 24.5817 -77.0758 296° West 438 504 36,000  Level Miami Center
06:18PM 24.6358 -77.1972 296° West 438 504 36,000  Level Miami Center
06:19PM 24.6878 -77.3186 295° West 438 504 36,000  Level Miami Center
06:20PM 24.7394 -77.4447 294° West 444 511 36,000  Level Miami Center
06:21PM 24.7933 -77.5639 296° West 444 511 36,000  Level Miami Center
06:22PM 24.8469 -77.6878 296° West 444 511 36,000  Level Miami Center
06:23PM 24.8967 -77.7936 297° West 438 504 36,000  Level Miami Center
06:24PM 24.9500 -77.9178 295° West 443 510 36,000  Level Miami Center
06:25PM 25.0014 -78.0350 296° West 443 510 36,000  Level Miami Center
06:26PM 25.0569 -78.1550 297° West 443 510 36,000  Level Miami Center
06:27PM 25.1058 -78.2794 293° West 443 510 36,000  Level Miami Center
06:28PM 25.1592 -78.3947 297° West 443 510 36,000  Level Miami Center
06:29PM 25.2119 -78.5172 295° West 438 504 36,000  Level Miami Center
06:30PM 25.2628 -78.6397 295° West 443 510 36,000  Level Miami Center
06:31PM 25.3178 -78.7647 296° West 443 510 36,000  Level Miami Center
06:32PM 25.3664 -78.8850 294° West 443 510 36,000  Level Miami Center
06:33PM 25.4211 -79.0033 297° West 438 504 36,000  Level Miami Center
06:34PM 25.4714 -79.1261 294° West 438 504 36,000  Level Miami Center
06:35PM 25.5258 -79.2469 297° West 438 504 36,000  Level Miami Center
06:36PM 25.5742 -79.3697 294° West 438 504 36,000  Level Miami Center
06:37PM 25.6264 -79.4908 296° West 438 504 36,000  Level Miami Center
06:38PM 25.6764 -79.6117 295° West 438 504 36,000  Level Miami Center
06:39PM 25.7283 -79.7328 295° West 443 510 36,000  Level Miami Center
06:40PM 25.7800 -79.8564 295° West 443 510 36,000  Level Miami Center
06:41PM 25.8319 -79.9800 295° West 443 510 36,000 -60 Level Miami Center
06:42PM 25.8814 -80.1036 294° West 438 504 35,900 -60 Descending Miami Center
06:43PM 25.9331 -80.2253 295° West 443 510 35,900  Level Miami Center
06:44PM 25.9844 -80.3467 295° West 443 510 36,000  Climbing Miami Center
06:45PM 26.0336 -80.4708 294° West 443 510 36,000 -60 Level Miami Center
06:46PM 26.0847 -80.5950 295° West 443 510 35,900  Descending Miami Center
06:47PM 26.1339 -80.7167 294° West 443 510 36,000  Climbing Miami Center
06:48PM 26.1850 -80.8364 295° West 443 510 35,900  Descending Miami Center
06:49PM 26.2375 -80.9794 292° West 448 516 36,000  Climbing Miami Center
06:50PM 26.2844 -81.0900 295° West 448 516 35,900  Descending Miami Center
06:51PM 26.3350 -81.2122 295° West 443 510 36,000  Climbing Miami Center
06:52PM 26.3856 -81.3392 294° West 443 510 36,000 -60 Level Miami Center
06:53PM 26.4361 -81.4617 295° West 443 510 35,900  Descending Miami Center
06:54PM 26.4842 -81.5889 293° West 443 510 36,000  Climbing Miami Center
06:55PM 26.5322 -81.7161 293° West 443 510 36,000 -60 Level Miami Center
06:56PM 26.5822 -81.8367 295° West 448 516 35,900 -60 Descending Miami Center
06:57PM 26.6322 -81.9667 293° West 443 510 35,900  Level Miami Center
06:58PM 26.6819 -82.0919 294° West 443 510 36,000  Climbing Miami Center
06:59PM 26.7333 -82.2289 293° West 443 510 36,000 -60 Level Miami Center
07:00PM 26.7850 -82.3522 295° West 443 510 35,900  Descending Miami Center
07:01PM 26.8344 -82.4778 294° West 443 510 36,000  Climbing Miami Center
07:02PM 26.8817 -82.6058 292° West 443 510 36,000 -60 Level Miami Center
07:03PM 26.9331 -82.7294 295° West 443 510 35,900  Descending Miami Center
07:04PM 26.9822 -82.8553 294° West 443 510 36,000  Climbing Miami Center
07:05PM 27.0311 -82.9814 294° West 443 510 36,000 -60 Level Miami Center
07:06PM 27.0800 -83.1097 293° West 443 510 35,900  Descending Miami Center
07:07PM 27.1286 -83.2358 293° West 443 510 36,000  Climbing Miami Center
07:08PM 27.1753 -83.3597 293° West 443 510 36,000  Level Miami Center
07:09PM 27.2236 -83.4883 293° West 443 510 36,000  Level Miami Center
07:10PM 27.2700 -83.6125 293° West 443 510 36,000 -60 Level Miami Center
07:11PM 27.3183 -83.7367 294° West 443 510 35,900  Descending Miami Center
07:12PM 27.3644 -83.8608 293° West 443 510 36,000  Climbing Miami Center
07:13PM 27.4128 -83.9856 294° West 443 510 36,000  Level Miami Center
07:14PM 27.4586 -84.1122 292° West 443 510 36,000  Level Miami Center
07:16PM 27.5714 -84.4139 293° West 439 505 36,000 -60 Level Jacksonville Center
07:17PM 27.6158 -84.5364 292° West 439 505 35,900  Descending Jacksonville Center
07:18PM 27.6642 -84.6567 294° West 428 493 36,000  Climbing Jacksonville Center
07:19PM 27.7025 -84.7533 294° West 401 461 35,900 -480 Descending Jacksonville Center
07:20PM 27.7425 -84.8736 291° West 401 461 35,100 -2,280 Descending Jacksonville Center
07:21PM 27.7844 -84.9869 293° West 395 455 31,400 -3,540 Descending Jacksonville Center
07:22PM 27.8178 -85.1144 286° West 413 475 28,100 -1,740 Descending Jacksonville Center
07:23PM 27.8508 -85.2514 285° West 430 495 28,000 -60 Descending Jacksonville Center
07:24PM 27.8858 -85.3858 286° West 438 504 28,000  Level Jacksonville Center
07:25PM 27.9206 -85.5253 286° West 450 518 28,000  Level Jacksonville Center
07:26PM 27.9553 -85.6625 286° West 457 526 28,000  Level Jacksonville Center
07:27PM 27.9878 -85.7950 286° West 457 526 28,000  Level Jacksonville Center
07:28PM 28.0203 -85.9297 285° West 453 521 28,000  Level Jacksonville Center
07:29PM 28.0544 -86.0697 285° West 451 519 28,000  Level Jacksonville Center
07:30PM 28.0883 -86.2094 285° West 456 525 28,000 -60 Level Jacksonville Center
07:31PM 28.1225 -86.3447 286° West 456 525 27,900 -60 Descending Jacksonville Center
07:32PM 28.1561 -86.4847 285° West 456 525 27,900  Level Jacksonville Center
07:33PM 28.1878 -86.6178 285° West 457 526 27,900  Level Jacksonville Center
07:34PM 28.2211 -86.7578 285° West 451 519 28,000  Climbing Jacksonville Center
07:35PM 28.2567 -86.8958 286° West 459 528 28,000 -60 Level Jacksonville Center
07:36PM 28.2917 -87.0456 285° West 459 528 27,900  Descending Jacksonville Center
07:37PM 28.3244 -87.1839 285° West 451 519 28,000  Climbing Jacksonville Center
07:40PM 28.3598 -87.3462 284° West  Level FlightAware Approximate
07:40PM 28.4117 -87.5553 284° West 449 517 27,900  Level Houston Center
07:41PM 28.4486 -87.7192 284° West 449 517 28,000  Climbing Houston Center
07:42PM 28.4808 -87.8556 285° West 446 513 28,000  Level Houston Center
07:43PM 28.5133 -87.9936 285° West 451 519 28,000  Level Houston Center
07:44PM 28.5431 -88.1236 285° West 451 519 28,000 900 Level Houston Center
07:45PM 28.5794 -88.2892 284° West 449 517 29,900 900 Climbing Houston Center
07:46PM 28.6114 -88.4244 285° West 445 512 29,900  Level Houston Center
07:48PM 28.6422 -88.5628 284° West 449 517 30,000  Climbing Houston Center
07:49PM 28.6739 -88.7025 285° West 453 521 30,000 -60 Level Houston Center
07:50PM 28.7044 -88.8414 284° West 454 522 29,900 -60 Descending Houston Center
07:51PM 28.7358 -88.9800 285° West 453 521 29,900  Level Houston Center
07:52PM 28.7647 -89.1167 284° West 448 516 29,900  Level Houston Center
07:53PM 28.8017 -89.2792 285° West 442 509 30,000  Climbing Houston Center
07:54PM 28.8317 -89.4183 284° West 448 516 30,000  Level Houston Center
07:55PM 28.8614 -89.5572 284° West 450 518 30,000 -60 Level Houston Center
07:56PM 28.8908 -89.6953 284° West 449 517 29,900  Descending Houston Center
07:57PM 28.9194 -89.8331 283° West 446 513 30,000  Climbing Houston Center
07:58PM 28.9494 -89.9694 284° West 444 511 30,000  Level Houston Center
07:59PM 28.9836 -90.1281 284° West 433 498 30,000  Level Houston Center
08:00PM 29.0114 -90.2603 284° West 428 493 30,000 -60 Level Houston Center
08:01PM 29.0386 -90.3881 284° West 417 480 29,900 -480 Descending Houston Center
08:02PM 29.0644 -90.5103 284° West 401 461 29,100 -480 Descending Houston Center
08:03PM 29.0903 -90.6394 283° West 414 476 29,000 -60 Descending Houston Center
08:04PM 29.1192 -90.7750 284° West 430 495 29,000 -60 Level Houston Center
08:05PM 29.1450 -90.9022 283° West 421 484 28,900  Descending Houston Center
08:06PM 29.1697 -91.0453 281° West 389 448 29,000 -120 Climbing Houston Center
08:07PM 29.1847 -91.1700 278° West 392 451 28,700 -540 Descending Houston Center
08:08PM 29.2008 -91.2997 278° West 405 466 28,000 -360 Descending Houston Center
08:09PM 29.2192 -91.4392 279° West 431 496 28,000  Level Houston Center
08:10PM 29.2378 -91.5803 279° West 445 512 28,000  Level Houston Center
08:11PM 29.2564 -91.7208 279° West 446 513 28,000  Level Houston Center
08:12PM 29.2725 -91.8606 278° West 445 512 28,000  Level Houston Center
08:13PM 29.2947 -92.0244 279° West 437 503 28,000  Level Houston Center
08:14PM 29.3125 -92.1636 278° West 439 505 28,000  Level Houston Center
08:15PM 29.3297 -92.3008 278° West 438 504 28,000  Level Houston Center
08:16PM 29.3467 -92.4378 278° West 435 501 28,000  Level Houston Center
08:17PM 29.3633 -92.5733 278° West 430 495 28,000 -60 Level Houston Center
08:18PM 29.3789 -92.7039 278° West 415 478 27,900  Descending Houston Center
08:19PM 29.3939 -92.8250 278° West 389 448 28,000  Climbing Houston Center
08:21PM 29.4108 -92.9714 278° West 385 443 28,000 -60 Level Houston Center
08:22PM 29.4258 -93.0931 278° West 385 443 27,900 -60 Descending Houston Center
08:23PM 29.4397 -93.2147 277° West 384 442 27,900 -540 Level Houston Center
08:24PM 29.4542 -93.3367 278° West 385 443 26,900 -1,020 Descending Houston Center
08:25PM 29.4672 -93.4531 277° West 371 427 25,900 -1,020 Descending Houston Center
08:26PM 29.4800 -93.5681 277° West 364 419 24,900 -1,020 Descending Houston Center
08:27PM 29.4928 -93.6844 277° West 366 421 23,900 -1,080 Descending Houston Center
08:28PM 29.5089 -93.8222 278° West 364 419 22,700 -1,680 Descending Houston Center
08:29PM 29.5192 -93.9672 275° West 351 404 20,100 -2,040 Descending Houston Center
08:30PM 29.5228 -94.0467 273° West 349 402 18,500 -2,400 Descending Houston Center
08:30PM 29.5244 -94.1011 272° West 344 396 17,200 -2,400 Descending Houston Center
08:31PM 29.5261 -94.1583 272° West 350 403 16,100 -2,400 Descending Houston Center
08:31PM 29.5283 -94.2233 272° West 355 409 14,800 -2,280 Descending Houston Center
08:32PM 29.5306 -94.2747 273° West 352 405 13,800 -1,800 Descending Houston Center
08:32PM 29.5333 -94.3356 273° West 343 395 13,000 -1,260 Descending Houston Center
08:33PM 29.5483 -94.3775 292° West 334 384 12,500 -1,680 Descending Houston Center
08:33PM 29.5681 -94.4297 293° West 323 372 11,300 -2,160 Descending Houston Center
08:34PM 29.5875 -94.4703 299° West 327 376 10,300 -1,980 Descending Houston Center
08:34PM 29.6089 -94.5253 294° West 328 377 9,300 -780 Descending Houston Center
08:35PM 29.6275 -94.5644 299° West 330 380 9,500 660 Climbing Houston Center
08:35PM 29.6522 -94.6233 296° West 332 382 10,000 480 Climbing Houston Center
08:36PM 29.6733 -94.6750 295° West 321 369 10,000 -540 Level Houston Center
08:36PM 29.6878 -94.7103 295° West 287 330 9,500 -1,500 Descending Houston Center
08:37PM 29.7092 -94.7575 298° West 293 337 8,500 -1,620 Descending Houston Center
08:37PM 29.7233 -94.7947 294° West 294 338 7,900 -1,380 Descending Houston Center
08:38PM 29.7447 -94.8400 299° West 291 335 7,100 -1,500 Descending Houston Center
08:38PM 29.7586 -94.8769 293° West 289 333 6,400 -1,080 Descending Houston Center
08:39PM 29.7794 -94.9228 298° West 289 333 6,000 -420 Descending Houston Center
08:39PM 29.7961 -94.9639 295° West 285 328 6,000  Level Houston Center
08:40PM 29.8136 -95.0042 297° West 286 329 6,000  Level Houston Center
08:40PM 29.8314 -95.0486 295° West 285 328 6,000  Level Houston Center
08:41PM 29.8556 -95.1019 298° West 287 330 6,000  Level Houston Center
08:41PM 29.8664 -95.1308 293° West 286 329 6,000  Level Houston Center
08:42PM 29.8892 -95.1839 296° West 287 330 6,000  Level Houston Center
08:43PM 29.8978 -95.2186 286° West 288 331 6,000  Level Houston Center
08:43PM 29.9011 -95.2739 274° West 290 334 6,000  Level Houston Center
08:44PM 29.8997 -95.3100 267° West 291 335 6,000 -120 Level Houston Center
08:44PM 29.9000 -95.3656 270° West 290 334 5,900 -720 Descending Houston Center
08:45PM 29.8997 -95.4017 270° West 278 320 5,300 -1,260 Descending Houston Center
08:45PM 29.9011 -95.4536 272° West 281 323 4,600 -1,140 Descending Houston Center
08:46PM 29.9019 -95.4931 271° West 266 306 4,200 -1,260 Descending Houston Center
08:46PM 29.9419 -95.5167 333° Northwest 255 293 3,300 -1,200 Descending Houston Center